Don Bosco, Argentina
Current Conditions -  °F | °C
As of 12:00 AM on Tuesday 23 Dec 2014 (Local Time) from SABE Reporting Station
Clear Clear  
Wind Chill: 66°   Ceiling: Unl
Heat Index: 66°   Visibility: 6mi
Dew Point: 46°   Wind: 8mph
Humidity: 49%   Direction: 150°SSE
Pressure: 30.21"   Gusts: NA
Location:  34.7°S, 58.28°W
Report Text: SABE 230300Z 15007KT CAVOK 19/08 Q1023
Loading
Personal Weather Stations






























Interactive Weather Map New forecast layout! Learn more

10-Day Weather Forecast

Advertisements
Track Severe Weather on mobile